Time;durP1;ratioP1;P1;durP2;ratioP2;P2;SDS_P1;SDS_P2;PMS_P1;PMS_P2;Temp;Humidity;BMP_temperature;BMP_pressure;BME280_temperature;BME280_humidity;BME280_pressure;Samples;Min_cycle;Max_cycle;Signal;HPM_P1;HPM_P2
2023/06/12 00:01:19;;;;;;;8.90;7.95;;;23.60;94.40;;;;;;5023808;28;20022;-71
2023/06/12 00:03:47;;;;;;;10.68;8.77;;;23.50;94.50;;;;;;5022187;28;20113;-71
2023/06/12 00:06:16;;;;;;;9.20;8.25;;;23.50;94.80;;;;;;5023863;28;20049;-71
2023/06/12 00:08:42;;;;;;;9.25;8.18;;;23.40;94.40;;;;;;5028040;28;20034;-71
2023/06/12 00:11:11;;;;;;;9.88;8.15;;;23.40;94.70;;;;;;5018939;28;20024;-71
2023/06/12 00:13:38;;;;;;;11.27;8.23;;;23.30;95.10;;;;;;5020247;28;20021;-71
2023/06/12 00:16:04;;;;;;;10.20;8.63;;;23.20;94.80;;;;;;5026667;28;20022;-71
2023/06/12 00:18:30;;;;;;;11.75;8.77;;;23.20;95.00;;;;;;5025157;28;20025;-72
2023/06/12 00:20:56;;;;;;;10.93;9.60;;;23.20;95.40;;;;;;5024593;28;20607;-71
2023/06/12 00:23:21;;;;;;;13.10;8.57;;;23.20;95.40;;;;;;5021171;28;20038;-71
2023/06/12 00:25:47;;;;;;;11.45;8.85;;;23.10;95.20;;;;;;5029962;28;20025;-71
2023/06/12 00:28:13;;;;;;;9.65;8.75;;;23.10;95.70;;;;;;5031458;28;20029;-71
2023/06/12 00:30:38;;;;;;;10.88;8.85;;;23.10;96.00;;;;;;5027823;28;20022;-71
2023/06/12 00:33:04;;;;;;;10.93;9.10;;;23.00;96.00;;;;;;5020635;28;20519;-71
2023/06/12 00:35:30;;;;;;;12.52;9.18;;;23.00;96.10;;;;;;5022331;28;20022;-71
2023/06/12 00:37:55;;;;;;;13.75;10.18;;;22.90;95.90;;;;;;5029088;28;20107;-71
2023/06/12 00:40:21;;;;;;;9.25;8.20;;;22.90;96.20;;;;;;5022326;28;20100;-71
2023/06/12 00:42:49;;;;;;;11.13;9.35;;;22.80;96.20;;;;;;5022350;28;20022;-71
2023/06/12 00:45:17;;;;;;;11.05;9.77;;;22.80;96.50;;;;;;5030755;28;20092;-71
2023/06/12 00:47:45;;;;;;;9.95;8.88;;;22.70;96.40;;;;;;5023834;28;20494;-71
2023/06/12 00:50:12;;;;;;;11.77;9.48;;;22.70;96.40;;;;;;5019244;28;20434;-71
2023/06/12 00:52:43;;;;;;;11.50;9.75;;;22.60;96.40;;;;;;5030650;28;20037;-71
2023/06/12 00:55:10;;;;;;;11.38;8.50;;;22.60;96.50;;;;;;5026710;28;20018;-71
2023/06/12 00:57:38;;;;;;;12.23;8.40;;;22.50;96.40;;;;;;5022595;28;20446;-71
2023/06/12 01:00:07;;;;;;;9.80;8.23;;;22.50;96.40;;;;;;5031096;28;20017;-71
2023/06/12 01:02:39;;;;;;;10.80;8.13;;;22.50;96.40;;;;;;5026136;28;20064;-71
2023/06/12 01:05:12;;;;;;;11.63;9.90;;;22.50;96.50;;;;;;5025583;28;20486;-71
2023/06/12 01:07:45;;;;;;;9.82;8.55;;;22.40;96.50;;;;;;5024540;28;20026;-71
2023/06/12 01:10:20;;;;;;;9.20;8.30;;;22.30;96.40;;;;;;5020617;28;20375;-71
2023/06/12 01:12:47;;;;;;;10.25;8.68;;;22.20;96.60;;;;;;5021330;28;20036;-71
2023/06/12 01:15:14;;;;;;;10.45;8.82;;;22.20;96.70;;;;;;5004828;28;20037;-71
2023/06/12 01:17:41;;;;;;;11.73;8.55;;;22.10;96.70;;;;;;5027033;28;20018;-71
2023/06/12 01:20:11;;;;;;;9.48;8.45;;;22.10;97.30;;;;;;5018652;28;20046;-71
2023/06/12 01:22:55;;;;;;;9.70;8.80;;;22.10;97.20;;;;;;5021420;28;20029;-71
2023/06/12 01:25:42;;;;;;;12.82;8.20;;;22.10;97.30;;;;;;5020710;28;20020;-71
2023/06/12 01:28:44;;;;;;;13.15;9.30;;;22.10;97.40;;;;;;5019804;28;20022;-71
2023/06/12 01:31:29;;;;;;;10.32;9.32;;;22.00;97.50;;;;;;5020884;28;20473;-71
2023/06/12 01:34:26;;;;;;;10.00;9.00;;;22.00;97.70;;;;;;5024282;28;20037;-71
2023/06/12 01:37:14;;;;;;;13.95;9.68;;;21.90;97.80;;;;;;5013537;28;20420;-71
2023/06/12 01:39:44;;;;;;;12.77;9.27;;;21.90;98.20;;;;;;5021605;28;20022;-71
2023/06/12 01:42:10;;;;;;;13.85;9.48;;;21.80;97.70;;;;;;5005075;28;20010;-71
2023/06/12 01:44:36;;;;;;;12.35;10.40;;;21.80;98.30;;;;;;5027330;28;20033;-71
2023/06/12 01:47:03;;;;;;;12.00;9.63;;;21.70;98.90;;;;;;5023008;28;20021;-71
2023/06/12 01:49:28;;;;;;;10.77;9.77;;;21.70;98.80;;;;;;5026710;28;20025;-71
2023/06/12 01:51:54;;;;;;;11.50;9.75;;;21.70;98.90;;;;;;5030309;28;20021;-71
2023/06/12 01:54:22;;;;;;;11.48;10.20;;;21.60;99.40;;;;;;5025628;28;20408;-71
2023/06/12 01:56:48;;;;;;;10.73;9.73;;;21.60;99.60;;;;;;5026851;28;20033;-71
2023/06/12 01:59:15;;;;;;;11.82;10.52;;;21.50;99.80;;;;;;5020742;28;20029;-71
2023/06/12 02:01:41;;;;;;;12.48;10.70;;;21.50;99.60;;;;;;5015040;28;20038;-71
2023/06/12 02:04:06;;;;;;;14.63;10.70;;;21.50;99.90;;;;;;5018742;28;20042;-71
2023/06/12 02:06:32;;;;;;;11.93;10.00;;;21.40;99.90;;;;;;5022345;28;20025;-71
2023/06/12 02:08:58;;;;;;;11.82;9.57;;;21.40;99.90;;;;;;5009401;28;20373;-71
2023/06/12 02:11:23;;;;;;;12.85;10.05;;;21.30;99.90;;;;;;5017616;28;20540;-71
2023/06/12 02:13:49;;;;;;;12.38;9.88;;;21.30;99.90;;;;;;5031566;28;20421;-71
2023/06/12 02:16:17;;;;;;;15.60;10.65;;;21.30;99.90;;;;;;5026162;28;20377;-71
2023/06/12 02:18:42;;;;;;;11.93;10.13;;;21.20;99.90;;;;;;5021807;28;20466;-71
2023/06/12 02:21:08;;;;;;;10.88;9.82;;;21.30;99.90;;;;;;5022175;28;20022;-71
2023/06/12 02:23:34;;;;;;;11.25;9.30;;;21.20;99.90;;;;;;5025306;28;20049;-71
2023/06/12 02:25:59;;;;;;;10.73;9.60;;;21.20;99.90;;;;;;5019889;28;20026;-71
2023/06/12 02:28:25;;;;;;;12.88;10.70;;;21.20;99.90;;;;;;5014045;28;20021;-71
2023/06/12 02:30:50;;;;;;;10.40;9.38;;;21.20;99.90;;;;;;5028647;28;20240;-71
2023/06/12 02:33:16;;;;;;;10.82;9.07;;;21.20;99.90;;;;;;5024367;28;20405;-71
2023/06/12 02:35:42;;;;;;;13.43;8.68;;;21.10;99.90;;;;;;5028663;28;20026;-71
2023/06/12 02:38:08;;;;;;;10.77;9.77;;;21.10;99.90;;;;;;5023352;28;20112;-71
2023/06/12 02:40:33;;;;;;;11.35;9.60;;;21.00;99.90;;;;;;5026090;28;20431;-71
2023/06/12 02:42:59;;;;;;;10.80;8.88;;;21.00;99.90;;;;;;5023795;28;20095;-71
2023/06/12 02:45:25;;;;;;;11.70;9.07;;;21.00;99.90;;;;;;5026961;28;20018;-71
2023/06/12 02:47:51;;;;;;;11.57;8.95;;;20.90;99.90;;;;;;5022991;28;20033;-71
2023/06/12 02:50:17;;;;;;;13.20;9.77;;;21.00;99.90;;;;;;5025278;28;20018;-71
2023/06/12 02:52:43;;;;;;;14.48;9.68;;;20.90;99.90;;;;;;5032811;28;20040;-71
2023/06/12 02:55:09;;;;;;;9.77;8.63;;;20.80;99.90;;;;;;5031234;28;20024;-71
2023/06/12 02:57:35;;;;;;;12.57;9.23;;;20.80;99.90;;;;;;5026895;28;20061;-71
2023/06/12 03:00:01;;;;;;;12.35;9.95;;;20.80;99.90;;;;;;5013953;28;20377;-71
2023/06/12 03:02:27;;;;;;;11.85;9.55;;;20.80;99.90;;;;;;5030445;28;20040;-71
2023/06/12 03:04:53;;;;;;;11.48;10.32;;;20.80;99.90;;;;;;5024645;28;20067;-71
2023/06/12 03:07:20;;;;;;;12.20;9.60;;;20.70;99.90;;;;;;5026396;28;20364;-71
2023/06/12 03:09:46;;;;;;;10.68;8.98;;;20.70;99.90;;;;;;5023633;28;20022;-71
2023/06/12 03:12:11;;;;;;;13.02;9.63;;;20.70;99.90;;;;;;5019324;28;20394;-71
2023/06/12 03:14:38;;;;;;;14.82;10.15;;;20.60;99.90;;;;;;5028691;28;20052;-71
2023/06/12 03:17:07;;;;;;;10.98;9.40;;;20.60;99.90;;;;;;5027389;28;20478;-71
2023/06/12 03:19:33;;;;;;;13.88;9.75;;;20.60;99.90;;;;;;5022458;28;20022;-71
2023/06/12 03:21:59;;;;;;;10.10;9.07;;;20.50;99.90;;;;;;5016081;28;20017;-71
2023/06/12 03:24:29;;;;;;;9.93;8.82;;;20.50;99.90;;;;;;5022581;28;20022;-71
2023/06/12 03:26:55;;;;;;;11.70;10.52;;;20.40;99.90;;;;;;5024369;28;20049;-71
2023/06/12 03:29:20;;;;;;;10.68;8.85;;;20.50;99.90;;;;;;5027074;28;20029;-71
2023/06/12 03:31:46;;;;;;;10.02;8.75;;;20.40;99.90;;;;;;5024446;28;20025;-71
2023/06/12 03:34:16;;;;;;;10.38;8.27;;;20.40;99.90;;;;;;5024180;28;20088;-71
2023/06/12 03:36:43;;;;;;;9.80;8.90;;;20.40;99.90;;;;;;5028669;28;20037;-72
2023/06/12 03:39:09;;;;;;;10.18;9.23;;;20.30;99.90;;;;;;5022152;28;20025;-71
2023/06/12 03:41:35;;;;;;;9.50;8.68;;;20.30;99.90;;;;;;5025091;28;20033;-71
2023/06/12 03:44:01;;;;;;;11.82;9.05;;;20.30;99.90;;;;;;5024923;28;20037;-71
2023/06/12 03:46:30;;;;;;;9.48;8.35;;;20.30;99.90;;;;;;5025513;28;20347;-71
2023/06/12 03:48:56;;;;;;;11.15;9.20;;;20.30;99.90;;;;;;5024112;28;20363;-71
2023/06/12 03:51:23;;;;;;;14.30;8.52;;;20.20;99.90;;;;;;5024261;28;20087;-71
2023/06/12 03:53:49;;;;;;;12.15;9.35;;;20.20;99.90;;;;;;5028308;28;20397;-71
2023/06/12 03:56:15;;;;;;;10.43;7.80;;;20.20;99.90;;;;;;5030155;28;20080;-71
2023/06/12 03:58:40;;;;;;;11.13;9.27;;;20.20;99.90;;;;;;5027548;28;20029;-71
2023/06/12 04:01:06;;;;;;;16.75;8.98;;;20.10;99.90;;;;;;5024994;28;20393;-71
2023/06/12 04:03:34;;;;;;;9.50;8.40;;;20.10;99.90;;;;;;5018841;28;20049;-71
2023/06/12 04:06:00;;;;;;;13.35;9.30;;;20.00;99.90;;;;;;5027471;28;20022;-71
2023/06/12 04:08:25;;;;;;;9.57;8.23;;;20.00;99.90;;;;;;5026643;28;20117;-71
2023/06/12 04:10:51;;;;;;;10.25;7.90;;;20.00;99.90;;;;;;5018145;28;20029;-71
2023/06/12 04:13:17;;;;;;;11.77;8.63;;;20.00;99.90;;;;;;5025541;28;20021;-71
2023/06/12 04:15:43;;;;;;;12.27;8.77;;;20.00;99.90;;;;;;5027216;28;20022;-71
2023/06/12 04:18:09;;;;;;;12.10;8.55;;;20.00;99.90;;;;;;5012375;28;20026;-71
2023/06/12 04:20:35;;;;;;;12.95;9.82;;;20.00;99.90;;;;;;5019341;28;20018;-71
2023/06/12 04:23:05;;;;;;;10.65;9.30;;;20.00;99.90;;;;;;5027649;28;20041;-71
2023/06/12 04:25:32;;;;;;;11.48;8.52;;;19.90;99.90;;;;;;5025138;28;20024;-71
2023/06/12 04:27:59;;;;;;;10.55;8.38;;;20.00;99.90;;;;;;5020945;28;20028;-71
2023/06/12 04:30:25;;;;;;;10.15;9.15;;;19.90;99.90;;;;;;5020519;28;20025;-71
2023/06/12 04:32:53;;;;;;;10.15;9.13;;;19.90;99.90;;;;;;5020899;28;20060;-72
2023/06/12 04:35:19;;;;;;;13.60;8.70;;;20.00;99.90;;;;;;5023816;28;20029;-72
2023/06/12 04:37:48;;;;;;;10.32;9.30;;;19.90;99.90;;;;;;5022092;28;20048;-72
2023/06/12 04:40:15;;;;;;;12.77;8.80;;;20.00;99.90;;;;;;5019535;28;20076;-71
2023/06/12 04:42:43;;;;;;;11.35;9.02;;;20.00;99.90;;;;;;5025836;28;20044;-72
2023/06/12 04:45:12;;;;;;;12.18;9.60;;;20.00;99.90;;;;;;5020443;28;20169;-72
2023/06/12 04:47:41;;;;;;;10.55;8.32;;;20.00;99.90;;;;;;5010357;28;20390;-72
2023/06/12 04:50:10;;;;;;;13.43;9.25;;;20.00;99.90;;;;;;5029778;28;20029;-71
2023/06/12 04:52:36;;;;;;;11.77;9.63;;;20.00;99.90;;;;;;5022633;28;20533;-71
2023/06/12 04:55:03;;;;;;;13.43;9.27;;;20.00;99.90;;;;;;5018857;28;20093;-71
2023/06/12 04:57:29;;;;;;;12.93;9.02;;;20.00;99.90;;;;;;5029729;28;20033;-72
2023/06/12 04:59:54;;;;;;;14.57;9.32;;;20.00;99.90;;;;;;5027571;28;20021;-72
2023/06/12 05:02:21;;;;;;;11.88;10.68;;;20.10;99.90;;;;;;5020642;28;20041;-72
2023/06/12 05:04:47;;;;;;;10.65;8.90;;;20.10;99.90;;;;;;5030243;28;20044;-72
2023/06/12 05:07:21;;;;;;;10.18;8.52;;;20.10;99.90;;;;;;5027955;28;20030;-72
2023/06/12 05:09:47;;;;;;;16.02;9.65;;;20.10;99.90;;;;;;5026823;28;20021;-72
2023/06/12 05:12:13;;;;;;;9.68;8.65;;;20.10;99.90;;;;;;5024774;28;20030;-72
2023/06/12 05:14:40;;;;;;;12.98;9.18;;;20.10;99.90;;;;;;5023446;28;20033;-72
2023/06/12 05:17:06;;;;;;;10.10;9.00;;;20.20;99.90;;;;;;5029523;28;20470;-72
2023/06/12 05:19:32;;;;;;;10.20;9.15;;;20.20;99.90;;;;;;5023992;28;20108;-72
2023/06/12 05:21:58;;;;;;;10.70;8.52;;;20.20;99.90;;;;;;5024966;28;20382;-72
2023/06/12 05:24:23;;;;;;;13.80;9.05;;;20.10;99.90;;;;;;5017754;28;20473;-72
2023/06/12 05:26:50;;;;;;;10.75;9.65;;;20.20;99.90;;;;;;5029955;28;20104;-72
2023/06/12 05:29:17;;;;;;;11.35;8.57;;;20.20;99.90;;;;;;5026100;28;20022;-72
2023/06/12 05:31:42;;;;;;;15.02;9.15;;;20.20;99.90;;;;;;5017195;28;20054;-71
2023/06/12 05:34:08;;;;;;;10.93;9.93;;;20.20;99.90;;;;;;5022882;28;20072;-72
2023/06/12 05:36:35;;;;;;;10.88;8.70;;;20.20;99.90;;;;;;5027681;28;20034;-71
2023/06/12 05:39:01;;;;;;;10.25;9.25;;;20.20;99.90;;;;;;5027801;28;20018;-72
2023/06/12 05:41:26;;;;;;;10.27;9.13;;;20.30;99.90;;;;;;5019923;28;20056;-71
2023/06/12 05:43:52;;;;;;;14.18;9.45;;;20.30;99.90;;;;;;5023622;28;20029;-71
2023/06/12 05:46:18;;;;;;;10.20;9.10;;;20.30;99.90;;;;;;5023061;28;20029;-72
2023/06/12 05:48:43;;;;;;;10.50;9.00;;;20.30;99.90;;;;;;5024531;28;20504;-71
2023/06/12 05:51:09;;;;;;;12.40;9.07;;;20.40;99.90;;;;;;5022058;28;20022;-72
2023/06/12 05:53:35;;;;;;;13.00;9.45;;;20.40;99.90;;;;;;5025022;28;20026;-72
2023/06/12 05:56:01;;;;;;;13.63;9.18;;;20.40;99.90;;;;;;5026295;28;20022;-71
2023/06/12 05:58:27;;;;;;;12.73;10.27;;;20.50;99.90;;;;;;5029409;28;20389;-72
2023/06/12 06:00:55;;;;;;;12.48;8.70;;;20.50;99.90;;;;;;5033222;28;20025;-72
2023/06/12 06:03:23;;;;;;;12.07;9.63;;;20.60;99.90;;;;;;5030918;28;20490;-71
2023/06/12 06:05:50;;;;;;;9.65;8.55;;;20.60;99.90;;;;;;5027936;28;20092;-72
2023/06/12 06:08:15;;;;;;;10.95;9.77;;;20.60;99.90;;;;;;5027101;28;20075;-71
2023/06/12 06:10:41;;;;;;;9.73;8.18;;;20.60;99.90;;;;;;5029982;28;20022;-71
2023/06/12 06:13:10;;;;;;;13.05;9.15;;;20.70;99.90;;;;;;5026181;28;20061;-71
2023/06/12 06:15:36;;;;;;;11.32;8.75;;;20.70;99.90;;;;;;5030674;28;20073;-71
2023/06/12 06:18:02;;;;;;;10.77;7.40;;;20.70;99.90;;;;;;5026350;28;20125;-72
2023/06/12 06:20:28;;;;;;;11.52;9.32;;;20.80;99.90;;;;;;5015843;28;20104;-71
2023/06/12 06:22:53;;;;;;;10.23;8.60;;;20.80;99.90;;;;;;5026567;28;20041;-71
2023/06/12 06:25:20;;;;;;;14.35;8.75;;;20.80;99.90;;;;;;5024566;28;20025;-71
2023/06/12 06:27:46;;;;;;;19.13;9.85;;;20.90;99.90;;;;;;5015836;28;20111;-71
2023/06/12 06:30:12;;;;;;;13.43;9.63;;;20.90;99.90;;;;;;5027152;28;20474;-71
2023/06/12 06:32:37;;;;;;;14.73;9.23;;;20.90;99.90;;;;;;5024850;28;20033;-71
2023/06/12 06:35:03;;;;;;;15.02;8.98;;;21.00;99.90;;;;;;5027664;28;20018;-71
2023/06/12 06:37:29;;;;;;;11.13;9.25;;;21.20;99.90;;;;;;5026771;28;20018;-71
2023/06/12 06:39:55;;;;;;;10.25;8.30;;;21.20;99.90;;;;;;5008523;28;20022;-71
2023/06/12 06:42:20;;;;;;;12.88;8.93;;;21.20;99.90;;;;;;5028183;28;20483;-71
2023/06/12 06:44:48;;;;;;;14.60;9.95;;;21.30;99.90;;;;;;5028701;28;20038;-71
2023/06/12 06:47:15;;;;;;;12.45;8.75;;;21.50;99.90;;;;;;5027999;28;20029;-70
2023/06/12 06:49:40;;;;;;;14.10;8.85;;;21.60;99.90;;;;;;5023761;28;20118;-71
2023/06/12 06:52:07;;;;;;;11.85;8.32;;;21.80;99.90;;;;;;5032125;28;20108;-71
2023/06/12 06:54:32;;;;;;;14.15;9.70;;;21.90;99.90;;;;;;5023102;28;20025;-71
2023/06/12 06:57:00;;;;;;;15.10;8.80;;;22.20;99.90;;;;;;5027143;28;20021;-71
2023/06/12 06:59:26;;;;;;;11.80;9.20;;;22.30;99.90;;;;;;5032152;28;20075;-71
2023/06/12 07:01:51;;;;;;;12.90;9.45;;;22.60;99.90;;;;;;5027992;28;20036;-71
2023/06/12 07:04:17;;;;;;;16.08;9.45;;;22.80;99.90;;;;;;5024344;28;20046;-71
2023/06/12 07:06:43;;;;;;;14.57;9.98;;;22.90;99.90;;;;;;5022732;28;20493;-72
2023/06/12 07:09:08;;;;;;;12.50;9.02;;;23.10;99.90;;;;;;5028934;28;20470;-71
2023/06/12 07:11:34;;;;;;;10.07;8.35;;;23.30;99.90;;;;;;5026272;28;20064;-71
2023/06/12 07:14:00;;;;;;;10.45;8.35;;;23.40;99.90;;;;;;5013133;28;20041;-71
2023/06/12 07:16:26;;;;;;;14.20;9.65;;;23.60;99.90;;;;;;5024165;28;20043;-71
2023/06/12 07:18:52;;;;;;;12.70;8.65;;;23.80;99.90;;;;;;5033747;28;20053;-71
2023/06/12 07:21:18;;;;;;;9.77;8.27;;;23.90;99.90;;;;;;5030986;28;20054;-71
2023/06/12 07:23:44;;;;;;;14.07;8.55;;;24.10;99.90;;;;;;5010824;28;20040;-71
2023/06/12 07:26:10;;;;;;;14.00;7.88;;;24.20;99.90;;;;;;5014395;28;20480;-71
2023/06/12 07:28:36;;;;;;;13.50;7.55;;;24.40;99.90;;;;;;5024368;28;20025;-71
2023/06/12 07:31:01;;;;;;;9.45;7.32;;;24.50;99.90;;;;;;5023971;28;20492;-71
2023/06/12 07:33:27;;;;;;;8.48;7.63;;;24.60;99.90;;;;;;5022831;28;20026;-71
2023/06/12 07:35:53;;;;;;;10.27;7.05;;;24.80;99.90;;;;;;5022157;28;20029;-71
2023/06/12 07:38:19;;;;;;;15.95;8.88;;;24.70;99.90;;;;;;5017278;28;20033;-71
2023/06/12 07:40:45;;;;;;;11.13;7.18;;;24.90;99.90;;;;;;5021429;28;20076;-71
2023/06/12 07:43:10;;;;;;;8.48;7.60;;;24.90;99.90;;;;;;5026530;28;20041;-71
2023/06/12 07:45:36;;;;;;;9.85;8.13;;;25.20;99.90;;;;;;5026494;28;20098;-71
2023/06/12 07:48:02;;;;;;;13.68;8.80;;;25.40;99.90;;;;;;5023362;28;20100;-71
2023/06/12 07:50:27;;;;;;;10.20;8.73;;;25.60;99.90;;;;;;5020636;28;20492;-71
2023/06/12 07:52:53;;;;;;;12.25;9.35;;;25.60;99.90;;;;;;5025763;28;20024;-71
2023/06/12 07:55:20;;;;;;;11.00;7.78;;;25.70;99.90;;;;;;5024565;28;20021;-71
2023/06/12 07:57:47;;;;;;;13.95;7.85;;;26.00;99.90;;;;;;5025143;28;20029;-71
2023/06/12 08:00:14;;;;;;;11.82;8.00;;;26.10;99.90;;;;;;5014915;28;20032;-71
2023/06/12 08:02:40;;;;;;;10.82;8.20;;;26.30;99.90;;;;;;5022020;28;20473;-71
2023/06/12 08:05:07;;;;;;;10.63;7.50;;;26.40;99.30;;;;;;5023354;28;20403;-71
2023/06/12 08:07:33;;;;;;;15.05;7.85;;;26.50;99.80;;;;;;5026761;28;20022;-71
2023/06/12 08:10:00;;;;;;;14.00;7.93;;;26.60;98.90;;;;;;5030927;28;20018;-71
2023/06/12 08:12:26;;;;;;;10.75;7.32;;;26.70;96.80;;;;;;5016291;28;20136;-72
2023/06/12 08:14:53;;;;;;;10.70;7.75;;;26.70;96.30;;;;;;5026216;28;20566;-71
2023/06/12 08:17:20;;;;;;;8.85;6.88;;;26.70;96.90;;;;;;5023725;28;20060;-71
2023/06/12 08:19:47;;;;;;;13.13;7.25;;;26.90;96.40;;;;;;5025903;28;20024;-71
2023/06/12 08:22:15;;;;;;;11.50;6.97;;;27.00;97.10;;;;;;5025492;28;20481;-71
2023/06/12 08:24:43;;;;;;;15.23;7.97;;;27.00;96.00;;;;;;5028119;28;20114;-71
2023/06/12 08:27:11;;;;;;;8.95;7.72;;;27.00;94.60;;;;;;5020439;28;20041;-71
2023/06/12 08:29:39;;;;;;;7.65;6.85;;;27.20;95.80;;;;;;5023198;28;20065;-71
2023/06/12 08:32:06;;;;;;;10.93;7.15;;;27.20;94.30;;;;;;5028144;28;20049;-71
2023/06/12 08:34:32;;;;;;;15.07;8.38;;;27.10;96.00;;;;;;5016080;28;20515;-70
2023/06/12 08:36:58;;;;;;;8.90;7.63;;;27.20;94.70;;;;;;5028757;28;20021;-71
2023/06/12 08:39:23;;;;;;;9.40;7.10;;;27.30;95.40;;;;;;5016101;28;20035;-70
2023/06/12 08:42:09;;;;;;;10.68;6.63;;;27.30;95.30;;;;;;5021766;28;20025;-70
2023/06/12 08:44:35;;;;;;;7.95;7.15;;;27.50;95.70;;;;;;5032098;28;20047;-71
2023/06/12 08:47:03;;;;;;;8.63;7.10;;;27.60;95.40;;;;;;5021650;28;20109;-71
2023/06/12 08:49:32;;;;;;;12.50;7.30;;;27.70;95.20;;;;;;5019074;28;20096;-70
2023/06/12 08:51:57;;;;;;;8.50;6.78;;;27.70;93.40;;;;;;5018352;28;20032;-71
2023/06/12 08:54:24;;;;;;;10.75;7.07;;;27.80;95.20;;;;;;5027458;28;20018;-71
2023/06/12 08:56:51;;;;;;;9.80;7.55;;;28.00;96.20;;;;;;5008740;28;20033;-70
2023/06/12 08:59:17;;;;;;;8.77;6.85;;;28.10;95.40;;;;;;5016735;28;20041;-71
2023/06/12 09:01:45;;;;;;;14.82;7.55;;;28.10;93.70;;;;;;5027462;28;20494;-71
2023/06/12 09:04:37;;;;;;;8.13;7.00;;;28.00;92.10;;;;;;5027183;28;20087;-71
2023/06/12 09:07:03;;;;;;;13.83;6.90;;;28.20;93.60;;;;;;5024252;28;20485;-71
2023/06/12 09:09:41;;;;;;;9.10;7.60;;;28.20;92.40;;;;;;5007816;28;20022;-70
2023/06/12 09:12:15;;;;;;;8.68;7.20;;;28.30;92.20;;;;;;5021605;28;20373;-71
2023/06/12 09:14:44;;;;;;;10.23;7.70;;;28.60;93.20;;;;;;5023211;28;20028;-70
2023/06/12 09:17:10;;;;;;;10.95;7.40;;;28.60;93.00;;;;;;5021090;28;20034;-71
2023/06/12 09:19:44;;;;;;;9.38;7.07;;;28.70;93.80;;;;;;5021496;28;20108;-70
2023/06/12 09:22:11;;;;;;;10.07;7.63;;;28.90;92.90;;;;;;5020915;28;20021;-71
2023/06/12 09:24:37;;;;;;;10.52;7.38;;;29.20;91.70;;;;;;5024226;28;20021;-71
2023/06/12 09:27:03;;;;;;;9.00;7.05;;;29.20;92.90;;;;;;5017879;28;20049;-72
2023/06/12 09:29:34;;;;;;;8.05;7.28;;;29.40;91.70;;;;;;5025931;28;20060;-71
2023/06/12 09:32:01;;;;;;;12.82;7.20;;;29.50;90.80;;;;;;5020186;28;20025;-72
2023/06/12 09:34:28;;;;;;;8.43;7.25;;;29.50;90.50;;;;;;5021534;28;20374;-71
2023/06/12 09:36:55;;;;;;;9.95;6.93;;;29.60;91.70;;;;;;5025801;28;20029;-71
2023/06/12 09:39:26;;;;;;;8.05;7.20;;;29.70;90.20;;;;;;5014568;28;20069;-70
2023/06/12 09:41:52;;;;;;;12.18;7.50;;;29.60;91.30;;;;;;5026708;28;20021;-71
2023/06/12 09:44:22;;;;;;;7.65;6.75;;;29.60;90.70;;;;;;4996424;28;20036;-70
2023/06/12 09:46:48;;;;;;;10.05;6.53;;;29.80;89.80;;;;;;5022512;28;20112;-71
2023/06/12 09:49:14;;;;;;;10.85;6.03;;;29.80;91.00;;;;;;5021819;28;20469;-70
2023/06/12 09:51:42;;;;;;;7.13;6.45;;;30.10;91.10;;;;;;5021314;28;20036;-71
2023/06/12 09:54:14;;;;;;;9.77;7.55;;;30.40;92.90;;;;;;5022378;28;20029;-71
2023/06/12 09:56:41;;;;;;;8.10;6.90;;;30.30;90.70;;;;;;5021796;28;20061;-71
2023/06/12 09:59:16;;;;;;;9.70;7.63;;;30.30;89.20;;;;;;5022189;28;20029;-70
2023/06/12 10:01:45;;;;;;;9.40;7.07;;;30.20;91.00;;;;;;5021362;28;20028;-72
2023/06/12 10:04:13;;;;;;;8.18;6.90;;;30.30;91.70;;;;;;5004424;28;20128;-72
2023/06/12 10:06:40;;;;;;;8.25;6.82;;;30.30;90.40;;;;;;5022716;28;20021;-71
2023/06/12 10:09:06;;;;;;;9.10;6.70;;;30.30;88.00;;;;;;5022748;28;20045;-71
2023/06/12 10:11:34;;;;;;;9.93;7.93;;;30.50;90.40;;;;;;5020771;28;20029;-71
2023/06/12 10:14:00;;;;;;;8.77;7.60;;;30.40;90.20;;;;;;5004767;28;20474;-71
2023/06/12 10:16:29;;;;;;;12.05;7.28;;;30.50;86.00;;;;;;5021495;28;20533;-72
2023/06/12 10:18:56;;;;;;;9.75;7.38;;;30.70;87.00;;;;;;5005271;28;20087;-72
2023/06/12 10:21:22;;;;;;;13.63;7.38;;;30.80;87.60;;;;;;5008126;28;20017;-72
2023/06/12 10:23:50;;;;;;;7.95;6.93;;;30.90;90.50;;;;;;5022602;28;20132;-73
2023/06/12 10:26:16;;;;;;;10.73;7.75;;;31.00;88.30;;;;;;5021562;28;20028;-73
2023/06/12 10:28:42;;;;;;;16.23;7.65;;;31.10;88.60;;;;;;5022561;28;20029;-72
2023/06/12 10:31:12;;;;;;;7.63;6.80;;;31.10;90.30;;;;;;5022555;28;20378;-72
2023/06/12 10:34:02;;;;;;;8.25;7.43;;;31.10;89.70;;;;;;5021289;28;20057;-73
2023/06/12 10:36:39;;;;;;;7.88;6.97;;;31.10;88.30;;;;;;5021175;28;20090;-71
2023/06/12 10:39:13;;;;;;;11.02;7.20;;;31.20;82.50;;;;;;5020980;28;20029;-72
2023/06/12 10:41:57;;;;;;;8.18;7.40;;;31.20;83.90;;;;;;5020622;28;20017;-71
2023/06/12 10:44:36;;;;;;;8.48;6.90;;;31.10;83.40;;;;;;5024412;28;20092;-72
2023/06/12 10:47:02;;;;;;;11.52;7.25;;;31.30;87.50;;;;;;5024119;28;20029;-72
2023/06/12 10:49:29;;;;;;;9.00;7.18;;;31.70;82.30;;;;;;5024234;28;20032;-72
2023/06/12 10:51:54;;;;;;;10.60;6.78;;;31.70;84.90;;;;;;5024699;28;20470;-72
2023/06/12 10:54:27;;;;;;;9.27;7.30;;;31.90;82.80;;;;;;5024078;28;20028;-72
2023/06/12 10:56:59;;;;;;;;;;;31.80;83.40;;;;;;5025291;28;20156;-72
2023/06/12 10:59:35;;;;;;;10.13;7.60;;;31.80;80.90;;;;;;5022814;28;20323;-73
2023/06/12 11:02:04;;;;;;;7.85;6.53;;;31.60;85.40;;;;;;5024772;28;20053;-72
2023/06/12 11:04:37;;;;;;;9.55;6.40;;;31.80;82.40;;;;;;5010906;28;20406;-72
2023/06/12 11:07:04;;;;;;;15.60;7.78;;;31.80;76.90;;;;;;5025944;28;20044;-72
2023/06/12 11:09:47;;;;;;;8.85;6.70;;;32.00;76.70;;;;;;5025043;28;20477;-72
2023/06/12 11:12:13;;;;;;;15.73;7.18;;;32.00;80.90;;;;;;5023854;28;20022;-73
2023/06/12 11:14:39;;;;;;;7.30;6.53;;;32.30;80.20;;;;;;5024425;28;20587;-73
2023/06/12 11:17:11;;;;;;;10.30;6.35;;;32.30;84.20;;;;;;5023200;28;20033;-71
2023/06/12 11:19:36;;;;;;;9.88;6.40;;;32.40;86.00;;;;;;5008833;28;20025;-72
2023/06/12 11:22:03;;;;;;;8.23;7.05;;;32.30;83.20;;;;;;5024518;28;20032;-71
2023/06/12 11:24:29;;;;;;;12.05;7.60;;;32.10;78.30;;;;;;5025593;28;20026;-71
2023/06/12 11:26:55;;;;;;;9.43;6.32;;;31.90;86.20;;;;;;5025130;28;20084;-72
2023/06/12 11:29:25;;;;;;;12.07;7.85;;;31.70;86.60;;;;;;5023956;28;20029;-72
2023/06/12 11:32:04;;;;;;;12.07;7.43;;;31.70;82.40;;;;;;5025265;28;20029;-71
2023/06/12 11:34:35;;;;;;;8.40;7.35;;;31.70;80.80;;;;;;5025586;28;20041;-70
2023/06/12 11:37:13;;;;;;;9.82;7.53;;;31.70;84.20;;;;;;5009827;28;20083;-71
2023/06/12 11:39:39;;;;;;;8.65;7.35;;;31.60;82.00;;;;;;5024454;28;20021;-72
2023/06/12 11:42:06;;;;;;;10.02;7.85;;;31.60;81.10;;;;;;5026888;28;20047;-70
2023/06/12 11:44:32;;;;;;;11.13;6.70;;;31.50;80.90;;;;;;5023896;28;20041;-70
2023/06/12 11:46:59;;;;;;;7.68;6.75;;;31.30;82.10;;;;;;5022348;28;20473;-71
2023/06/12 11:49:25;;;;;;;8.15;6.93;;;31.30;80.70;;;;;;5023662;28;20033;-70
2023/06/12 11:51:52;;;;;;;14.52;6.45;;;31.30;80.50;;;;;;5006777;28;20029;-70
2023/06/12 11:54:17;;;;;;;7.85;7.05;;;31.40;83.40;;;;;;5022243;28;20109;-72
2023/06/12 11:56:43;;;;;;;13.88;7.07;;;31.50;79.70;;;;;;5023852;28;20518;-71
2023/06/12 11:59:10;;;;;;;7.15;6.55;;;31.40;82.10;;;;;;5023833;28;20033;-71
2023/06/12 12:01:40;;;;;;;8.27;6.97;;;31.30;80.30;;;;;;5023167;28;20035;-71
2023/06/12 12:04:07;;;;;;;9.48;6.97;;;31.30;82.10;;;;;;5023662;28;20087;-71
2023/06/12 12:06:48;;;;;;;14.80;7.32;;;31.30;80.60;;;;;;5022171;28;20049;-71
2023/06/12 12:09:14;;;;;;;10.88;7.22;;;31.40;81.90;;;;;;5021671;28;20858;-71
2023/06/12 12:11:40;;;;;;;7.38;6.55;;;31.30;83.80;;;;;;5023469;28;20052;-71
2023/06/12 12:14:06;;;;;;;8.88;6.93;;;31.20;83.20;;;;;;5021499;28;20061;-70
2023/06/12 12:16:42;;;;;;;8.43;7.00;;;31.30;77.80;;;;;;5022813;28;20029;-72
2023/06/12 12:19:19;;;;;;;8.63;6.53;;;31.30;79.90;;;;;;5023005;28;20087;-70
2023/06/12 12:21:48;;;;;;;9.90;5.93;;;31.30;77.60;;;;;;5023988;28;20113;-69
2023/06/12 12:24:16;;;;;;;9.18;6.03;;;31.10;72.90;;;;;;5022881;28;20567;-69
2023/06/12 12:26:48;;;;;;;7.13;5.97;;;31.20;77.90;;;;;;5023452;28;20047;-69
2023/06/12 12:29:14;;;;;;;6.85;6.25;;;31.30;76.50;;;;;;5007915;28;20037;-69
2023/06/12 12:31:40;;;;;;;8.38;6.75;;;31.50;76.20;;;;;;5023771;28;20520;-68
2023/06/12 12:34:08;;;;;;;8.95;6.22;;;31.60;78.30;;;;;;5023119;28;20049;-68
2023/06/12 12:36:35;;;;;;;8.77;6.90;;;31.60;75.60;;;;;;5023476;28;20021;-70
2023/06/12 12:39:00;;;;;;;8.77;6.90;;;31.80;73.20;;;;;;5023950;28;20098;-72
2023/06/12 12:41:26;;;;;;;7.90;6.03;;;31.90;73.60;;;;;;5030260;28;20385;-70
2023/06/12 12:43:52;;;;;;;7.00;6.15;;;32.00;73.20;;;;;;5022915;28;20533;-70